METAR Data
IDs: Format: Raw Decoded Include TAF

Data at: 2217 UTC 01 Dec 2021

LIPO 012150Z AUTO 22003KT //// // OVC036 06/05 Q1005